createdAt,value
2022-09-15T00:01:18.371Z,96570.38
2022-09-15T00:03:51.223Z,96567.83
2022-09-15T00:06:22.807Z,96571.46
2022-09-15T00:08:54.614Z,96573.95
2022-09-15T00:11:27.741Z,96573.02
2022-09-15T00:14:00.899Z,96567.82
2022-09-15T00:16:33.595Z,96566.77
2022-09-15T00:19:05.787Z,96567.66
2022-09-15T00:21:39.870Z,96565.67
2022-09-15T00:24:11.474Z,96566.21
2022-09-15T00:26:43.079Z,96559.17
2022-09-15T00:29:15.456Z,96554.42
2022-09-15T00:31:46.995Z,96555.14
2022-09-15T00:34:18.461Z,96544.16
2022-09-15T00:36:50.124Z,96541.45
2022-09-15T00:39:21.728Z,96536.93
2022-09-15T00:41:53.236Z,96535.08
2022-09-15T00:44:53.672Z,96534.59
2022-09-15T00:47:28.321Z,96529.15
2022-09-15T00:50:04.205Z,96524.36
2022-09-15T00:52:41.043Z,96518.80
2022-09-15T00:55:17.724Z,96512.44
2022-09-15T00:57:53.468Z,96508.70
2022-09-15T01:00:27.615Z,96507.77
2022-09-15T01:03:00.047Z,96503.66
2022-09-15T01:05:37.314Z,96501.08
2022-09-15T01:08:12.532Z,96493.36
2022-09-15T01:10:46.586Z,96487.41
2022-09-15T01:13:18.091Z,96476.01
2022-09-15T01:16:01.602Z,96477.86
2022-09-15T01:18:41.738Z,96478.90
2022-09-15T01:21:24.567Z,96479.88
2022-09-15T01:24:43.994Z,96477.84
2022-09-15T01:27:52.823Z,96472.36
2022-09-15T01:30:24.734Z,96470.06
2022-09-15T01:33:23.227Z,96464.92
2022-09-15T01:36:04.360Z,96457.11
2022-09-15T01:38:45.037Z,96450.96
2022-09-15T01:41:19.609Z,96450.55
2022-09-15T01:43:56.780Z,96447.10
2022-09-15T01:46:31.554Z,96453.02
2022-09-15T01:49:04.983Z,96452.19
2022-09-15T01:51:37.695Z,96454.17
2022-09-15T01:54:12.268Z,96457.86
2022-09-15T01:56:45.233Z,96457.61
2022-09-15T01:59:17.123Z,96455.61
2022-09-15T02:01:52.793Z,96456.52
2022-09-15T02:04:31.588Z,96449.91
2022-09-15T02:07:11.957Z,96452.06
2022-09-15T02:09:52.138Z,96448.77
2022-09-15T02:12:34.273Z,96445.33
2022-09-15T02:15:10.709Z,96438.51
2022-09-15T02:17:47.229Z,96436.33
2022-09-15T02:20:23.690Z,96439.38
2022-09-15T02:23:01.874Z,96434.92
2022-09-15T02:25:39.379Z,96431.20
2022-09-15T02:28:15.067Z,96427.42
2022-09-15T02:30:48.525Z,96422.93
2022-09-15T02:33:24.549Z,96421.68
2022-09-15T02:35:56.754Z,96420.31
2022-09-15T02:38:31.521Z,96417.98
2022-09-15T02:41:03.740Z,96413.47
2022-09-15T02:43:35.327Z,96413.48
2022-09-15T02:46:07.165Z,96411.60
2022-09-15T02:48:39.362Z,96406.41
2022-09-15T02:51:11.111Z,96407.34
2022-09-15T02:53:44.555Z,96408.48
2022-09-15T02:56:18.236Z,96411.17
2022-09-15T02:58:49.808Z,96408.88
2022-09-15T03:01:21.515Z,96409.91
2022-09-15T03:03:53.187Z,96409.55
2022-09-15T03:06:27.912Z,96410.73
2022-09-15T03:09:00.285Z,96407.73
2022-09-15T03:11:32.681Z,96406.09
2022-09-15T03:14:06.751Z,96407.98
2022-09-15T03:16:38.411Z,96405.35
2022-09-15T03:19:10.010Z,96407.77
2022-09-15T03:21:41.554Z,96404.87
2022-09-15T03:24:15.310Z,96409.70
2022-09-15T03:26:46.907Z,96407.67
2022-09-15T03:29:18.432Z,96407.52
2022-09-15T03:31:50.054Z,96403.27
2022-09-15T03:34:21.886Z,96399.83
2022-09-15T03:36:53.477Z,96400.49
2022-09-15T03:39:25.025Z,96395.50
2022-09-15T03:41:56.693Z,96401.91
2022-09-15T03:44:28.329Z,96396.93
2022-09-15T03:46:59.920Z,96401.73
2022-09-15T03:49:31.619Z,96403.66
2022-09-15T03:52:04.879Z,96402.46
2022-09-15T03:54:36.461Z,96396.44
2022-09-15T03:57:08.174Z,96397.85
2022-09-15T03:59:39.685Z,96398.62
2022-09-15T04:02:11.328Z,96401.20
2022-09-15T04:04:43.124Z,96405.98
2022-09-15T04:07:14.711Z,96404.59
2022-09-15T04:09:46.427Z,96398.77
2022-09-15T04:12:18.180Z,96401.16
2022-09-15T04:14:49.800Z,96407.94
2022-09-15T04:17:22.074Z,96410.61
2022-09-15T04:19:53.572Z,96413.61
2022-09-15T04:22:25.284Z,96409.96
2022-09-15T04:24:56.775Z,96410.02
2022-09-15T04:27:28.983Z,96414.20
2022-09-15T04:30:00.546Z,96418.60
2022-09-15T04:32:32.450Z,96423.17
2022-09-15T04:35:04.824Z,96424.67
2022-09-15T04:37:36.374Z,96427.89
2022-09-15T04:40:12.095Z,96428.14
2022-09-15T04:42:43.681Z,96425.11
2022-09-15T04:45:15.192Z,96424.61
2022-09-15T04:47:48.436Z,96428.69
2022-09-15T04:50:20.025Z,96422.32
2022-09-15T04:52:52.117Z,96417.01
2022-09-15T04:55:23.716Z,96426.52
2022-09-15T04:57:56.312Z,96434.43
2022-09-15T05:00:27.846Z,96430.92
2022-09-15T05:03:00.861Z,96432.70
2022-09-15T05:05:34.661Z,96426.69
2022-09-15T05:08:06.780Z,96424.27
2022-09-15T05:10:39.142Z,96422.42
2022-09-15T05:13:10.630Z,96419.71
2022-09-15T05:15:42.151Z,96421.96
2022-09-15T05:18:13.903Z,96427.30
2022-09-15T05:20:45.329Z,96428.23
2022-09-15T05:23:16.782Z,96430.84
2022-09-15T05:25:56.972Z,96431.84
2022-09-15T05:28:29.257Z,96433.94
2022-09-15T05:31:00.782Z,96439.35
2022-09-15T05:33:32.528Z,96437.75
2022-09-15T05:36:05.047Z,96438.55
2022-09-15T05:38:38.765Z,96444.52
2022-09-15T05:41:11.606Z,96448.04
2022-09-15T05:43:43.043Z,96450.14
2022-09-15T05:46:13.494Z,96451.34
2022-09-15T05:48:45.811Z,96455.76
2022-09-15T05:51:17.324Z,96457.89
2022-09-15T05:53:48.969Z,96464.95
2022-09-15T05:56:20.965Z,96468.82
2022-09-15T05:58:52.549Z,96462.32
2022-09-15T06:01:26.647Z,96464.73
2022-09-15T06:03:59.406Z,96467.89
2022-09-15T06:06:33.380Z,96470.20
2022-09-15T06:09:07.736Z,96473.98
2022-09-15T06:11:42.757Z,96480.52
2022-09-15T06:14:17.119Z,96478.30
2022-09-15T06:16:50.327Z,96482.07
2022-09-15T06:19:22.772Z,96478.96
2022-09-15T06:21:55.311Z,96478.16
2022-09-15T06:24:28.690Z,96474.23
2022-09-15T06:29:41.514Z,96479.73
2022-09-15T06:32:13.834Z,96484.64
2022-09-15T06:34:46.128Z,96487.11
2022-09-15T06:37:17.991Z,96492.02
2022-09-15T06:39:49.772Z,96489.08
2022-09-15T06:42:22.423Z,96497.80
2022-09-15T06:44:54.014Z,96495.19
2022-09-15T06:47:25.723Z,96504.19
2022-09-15T06:49:57.291Z,96515.61
2022-09-15T06:52:28.790Z,96523.71
2022-09-15T06:55:00.365Z,96529.14
2022-09-15T06:57:31.893Z,96534.86
2022-09-15T07:00:05.709Z,96544.20
2022-09-15T07:02:37.599Z,96545.48
2022-09-15T07:05:10.857Z,96545.48
2022-09-15T07:07:42.488Z,96549.23
2022-09-15T07:10:14.091Z,96555.17
2022-09-15T07:12:46.158Z,96553.42
2022-09-15T07:15:17.861Z,96558.16
2022-09-15T07:17:49.335Z,96559.69
2022-09-15T07:20:20.871Z,96568.70
2022-09-15T07:22:52.330Z,96576.41
2022-09-15T07:25:23.783Z,96586.91
2022-09-15T07:27:55.416Z,96594.14
2022-09-15T07:30:26.912Z,96602.45
2022-09-15T07:32:58.338Z,96612.63
2022-09-15T07:35:29.840Z,96613.58
2022-09-15T07:38:02.093Z,96618.34
2022-09-15T07:40:34.463Z,96615.09
2022-09-15T07:43:06.195Z,96623.65
2022-09-15T07:45:38.410Z,96628.09
2022-09-15T07:48:10.149Z,96630.27
2022-09-15T07:50:41.637Z,96642.07
2022-09-15T07:53:13.074Z,96646.35
2022-09-15T07:55:44.526Z,96645.45
2022-09-15T07:58:15.950Z,96648.90
2022-09-15T08:00:47.851Z,96651.80
2022-09-15T08:03:19.648Z,96651.19
2022-09-15T08:05:51.164Z,96650.86
2022-09-15T08:08:22.615Z,96658.21
2022-09-15T08:10:54.142Z,96668.34
2022-09-15T08:13:25.631Z,96674.41
2022-09-15T08:15:57.178Z,96681.08
2022-09-15T08:18:28.937Z,96683.91
2022-09-15T08:21:00.438Z,96686.03
2022-09-15T08:23:31.862Z,96688.11
2022-09-15T08:26:03.579Z,96695.67
2022-09-15T08:28:35.110Z,96697.27
2022-09-15T08:31:08.771Z,96703.61
2022-09-15T08:33:45.229Z,96706.27
2022-09-15T08:36:17.643Z,96707.33
2022-09-15T08:38:49.560Z,96716.18
2022-09-15T08:41:25.370Z,96727.23
2022-09-15T08:44:02.931Z,96724.71
2022-09-15T08:46:40.994Z,96725.77
2022-09-15T08:49:30.605Z,96729.55
2022-09-15T08:52:12.465Z,96731.36
2022-09-15T08:54:44.378Z,96724.64
2022-09-15T08:57:20.837Z,96723.40
2022-09-15T08:59:54.433Z,96726.05
2022-09-15T09:03:04.047Z,96729.15
2022-09-15T09:05:47.672Z,96733.52
2022-09-15T09:08:46.600Z,96744.03
2022-09-15T09:11:26.376Z,96745.02
2022-09-15T09:14:08.433Z,96740.56
2022-09-15T09:16:59.285Z,96739.66
2022-09-15T09:19:52.753Z,96746.77
2022-09-15T09:22:28.623Z,96755.89
2022-09-15T09:25:11.518Z,96758.34
2022-09-15T09:27:54.234Z,96751.85
2022-09-15T09:30:28.669Z,96756.98
2022-09-15T09:33:13.589Z,96753.59
2022-09-15T09:35:48.268Z,96748.95
2022-09-15T09:38:22.632Z,96749.20
2022-09-15T09:40:57.487Z,96748.77
2022-09-15T09:43:32.283Z,96745.26
2022-09-15T09:46:03.850Z,96742.87
2022-09-15T09:48:37.226Z,96740.35
2022-09-15T09:51:32.666Z,96741.62
2022-09-15T09:54:21.308Z,96736.20
2022-09-15T09:56:54.283Z,96732.16
2022-09-15T09:59:36.389Z,96730.55
2022-09-15T10:02:17.038Z,96729.27
2022-09-15T10:04:50.973Z,96731.77
2022-09-15T10:07:25.801Z,96733.43
2022-09-15T10:09:59.557Z,96735.77
2022-09-15T10:12:34.965Z,96734.58
2022-09-15T10:15:20.507Z,96733.39
2022-09-15T10:17:52.932Z,96730.98
2022-09-15T10:20:32.750Z,96729.80
2022-09-15T10:23:28.920Z,96730.35
2022-09-15T10:26:22.006Z,96729.84
2022-09-15T10:29:14.245Z,96729.56
2022-09-15T10:31:46.814Z,96729.66
2022-09-15T10:34:32.320Z,96727.88
2022-09-15T10:37:15.038Z,96728.36
2022-09-15T10:39:54.796Z,96726.63
2022-09-15T10:42:38.816Z,96721.21
2022-09-15T10:45:23.456Z,96720.73
2022-09-15T10:48:11.038Z,96720.98
2022-09-15T10:50:54.525Z,96721.08
2022-09-15T10:53:44.982Z,96720.63
2022-09-15T10:56:26.943Z,96715.23
2022-09-15T10:59:20.899Z,96713.16
2022-09-15T11:02:04.153Z,96711.73
2022-09-15T11:05:00.701Z,96708.86
2022-09-15T11:07:42.186Z,96710.56
2022-09-15T11:10:23.456Z,96704.65
2022-09-15T11:13:04.535Z,96705.52
2022-09-15T11:15:54.758Z,96706.46
2022-09-15T11:18:51.459Z,96707.09
2022-09-15T11:21:30.665Z,96709.03
2022-09-15T11:24:21.349Z,96710.27
2022-09-15T11:26:58.860Z,96712.80
2022-09-15T11:29:35.621Z,96714.13
2022-09-15T11:32:17.521Z,96714.73
2022-09-15T11:34:57.332Z,96710.52
2022-09-15T11:37:36.918Z,96713.77
2022-09-15T11:40:18.288Z,96709.59
2022-09-15T11:43:00.777Z,96704.96
2022-09-15T11:45:41.609Z,96700.02
2022-09-15T11:48:19.210Z,96697.31
2022-09-15T11:50:55.722Z,96695.20
2022-09-15T11:53:35.099Z,96692.17
2022-09-15T11:56:16.130Z,96687.60
2022-09-15T11:59:02.843Z,96683.63
2022-09-15T12:01:42.175Z,96682.11
2022-09-15T12:04:19.504Z,96682.77
2022-09-15T12:06:57.208Z,96685.88
2022-09-15T12:09:29.562Z,96685.70
2022-09-15T12:12:08.166Z,96687.98
2022-09-15T12:14:44.546Z,96685.91
2022-09-15T12:17:26.731Z,96687.32
2022-09-15T12:20:04.282Z,96685.56
2022-09-15T12:22:42.831Z,96681.69
2022-09-15T12:25:20.800Z,96679.65
2022-09-15T12:28:23.852Z,96680.10
2022-09-15T12:31:18.775Z,96679.18
2022-09-15T12:33:56.835Z,96679.14
2022-09-15T12:36:38.945Z,96683.95
2022-09-15T12:39:37.742Z,96690.02
2022-09-15T12:42:20.436Z,96691.89
2022-09-15T12:44:59.173Z,96694.02
2022-09-15T12:47:35.045Z,96696.05
2022-09-15T12:50:26.867Z,96698.85
2022-09-15T12:53:02.068Z,96697.15
2022-09-15T12:55:37.439Z,96694.39
2022-09-15T12:58:18.289Z,96692.61
2022-09-15T13:01:14.289Z,96685.81
2022-09-15T13:04:29.863Z,96670.13
2022-09-15T13:07:39.262Z,96667.65
2022-09-15T13:10:36.603Z,96670.31
2022-09-15T13:13:21.598Z,96675.25
2022-09-15T13:15:56.317Z,96678.57
2022-09-15T13:18:33.342Z,96679.22
2022-09-15T13:21:11.113Z,96670.67
2022-09-15T13:23:48.041Z,96665.71
2022-09-15T13:26:24.022Z,96666.02
2022-09-15T13:28:56.559Z,96661.80
2022-09-15T13:31:39.918Z,96662.87
2022-09-15T13:38:12.174Z,96666.83
2022-09-15T13:41:24.453Z,96674.48
2022-09-15T13:44:32.263Z,96679.85
2022-09-15T13:47:16.128Z,96683.53
2022-09-15T13:49:52.385Z,96683.47
2022-09-15T13:53:05.729Z,96691.86
2022-09-15T13:55:39.392Z,96687.70
2022-09-15T14:01:08.618Z,96682.03
2022-09-15T14:03:44.539Z,96681.55
2022-09-15T14:06:18.883Z,96678.96
2022-09-15T14:08:57.074Z,96678.84
2022-09-15T14:11:32.283Z,96676.00
2022-09-15T14:14:07.256Z,96671.70
2022-09-15T14:16:39.781Z,96665.35
2022-09-15T14:19:33.521Z,96663.23
2022-09-15T14:22:26.059Z,96660.34
2022-09-15T14:24:59.276Z,96657.95
2022-09-15T14:27:33.916Z,96656.34
2022-09-15T14:30:12.089Z,96656.39
2022-09-15T14:32:52.137Z,96655.86
2022-09-15T14:35:26.980Z,96660.41
2022-09-15T14:38:00.379Z,96660.14
2022-09-15T14:40:36.727Z,96653.91
2022-09-15T14:43:26.905Z,96652.00
2022-09-15T14:46:10.166Z,96645.57
2022-09-15T14:48:41.637Z,96636.73
2022-09-15T14:51:20.544Z,96632.27
2022-09-15T14:53:56.074Z,96628.59
2022-09-15T14:56:31.440Z,96627.11
2022-09-15T14:59:08.417Z,96630.48
2022-09-15T15:01:58.749Z,96637.45
2022-09-15T15:04:36.685Z,96633.98
2022-09-15T15:07:17.011Z,96631.82
2022-09-15T15:09:51.481Z,96624.46
2022-09-15T15:12:27.966Z,96624.54
2022-09-15T15:15:00.796Z,96623.89
2022-09-15T15:17:41.911Z,96621.11
2022-09-15T15:20:23.045Z,96621.79
2022-09-15T15:23:15.366Z,96627.23
2022-09-15T15:25:47.827Z,96627.30
2022-09-15T15:28:33.861Z,96624.92
2022-09-15T15:31:13.975Z,96618.86
2022-09-15T15:33:50.927Z,96615.39
2022-09-15T15:36:24.984Z,96612.02
2022-09-15T15:39:09.428Z,96619.33
2022-09-15T15:41:43.082Z,96622.16
2022-09-15T15:44:29.003Z,96621.73
2022-09-15T15:47:03.337Z,96626.48
2022-09-15T15:49:36.788Z,96627.04
2022-09-15T15:52:10.752Z,96631.29
2022-09-15T15:54:43.207Z,96636.49
2022-09-15T15:57:28.163Z,96638.39
2022-09-15T16:00:00.939Z,96644.21
2022-09-15T16:02:33.142Z,96645.59
2022-09-15T16:05:05.184Z,96653.90
2022-09-15T16:07:37.073Z,96656.73
2022-09-15T16:10:16.233Z,96662.46
2022-09-15T16:12:48.164Z,96661.99
2022-09-15T16:15:22.266Z,96661.02
2022-09-15T16:17:54.001Z,96656.94
2022-09-15T16:20:25.759Z,96663.54
2022-09-15T16:22:57.690Z,96669.61
2022-09-15T16:25:39.446Z,96671.11
2022-09-15T16:28:12.203Z,96679.44
2022-09-15T16:30:44.390Z,96680.48
2022-09-15T16:33:18.004Z,96674.80
2022-09-15T16:35:55.565Z,96671.58
2022-09-15T16:38:28.876Z,96674.29
2022-09-15T16:41:01.128Z,96677.01
2022-09-15T16:43:33.482Z,96679.64
2022-09-15T16:46:06.320Z,96673.73
2022-09-15T16:48:37.956Z,96679.16
2022-09-15T16:51:31.763Z,96677.05
2022-09-15T16:54:03.952Z,96682.48
2022-09-15T16:56:35.502Z,96685.30
2022-09-15T16:59:07.430Z,96684.27
2022-09-15T17:01:39.792Z,96680.75
2022-09-15T17:04:16.444Z,96679.21
2022-09-15T17:06:48.177Z,96685.02
2022-09-15T17:09:20.566Z,96691.16
2022-09-15T17:11:52.028Z,96701.38
2022-09-15T17:14:23.657Z,96698.02
2022-09-15T17:16:55.568Z,96695.65
2022-09-15T17:19:27.147Z,96692.50
2022-09-15T17:21:59.026Z,96691.65
2022-09-15T17:24:30.698Z,96691.36
2022-09-15T17:27:02.245Z,96692.28
2022-09-15T17:29:33.714Z,96693.62
2022-09-15T17:32:06.062Z,96693.51
2022-09-15T17:34:39.192Z,96693.75
2022-09-15T17:37:11.166Z,96696.24
2022-09-15T17:39:43.285Z,96699.13
2022-09-15T17:42:15.469Z,96701.21
2022-09-15T17:44:46.973Z,96707.22
2022-09-15T17:47:20.618Z,96710.86
2022-09-15T17:49:54.147Z,96713.45
2022-09-15T17:52:26.185Z,96709.85
2022-09-15T17:54:58.469Z,96708.38
2022-09-15T17:57:30.522Z,96705.23
2022-09-15T18:00:02.338Z,96702.73
2022-09-15T18:02:36.749Z,96704.54
2022-09-15T18:05:17.642Z,96705.98
2022-09-15T18:07:49.888Z,96705.77
2022-09-15T18:10:22.518Z,96705.41
2022-09-15T18:12:55.848Z,96709.23
2022-09-15T18:15:31.602Z,96707.41
2022-09-15T18:18:08.693Z,96707.54
2022-09-15T18:20:41.628Z,96712.86
2022-09-15T18:23:16.765Z,96718.80
2022-09-15T18:25:49.262Z,96719.04
2022-09-15T18:28:21.606Z,96725.98
2022-09-15T18:30:56.688Z,96721.86
2022-09-15T18:33:29.377Z,96723.18
2022-09-15T18:36:01.538Z,96726.30
2022-09-15T18:38:33.617Z,96718.38
2022-09-15T18:41:10.135Z,96708.42
2022-09-15T18:43:41.730Z,96709.63
2022-09-15T18:46:13.280Z,96699.12
2022-09-15T18:48:44.878Z,96697.83
2022-09-15T18:51:24.090Z,96694.98
2022-09-15T18:54:01.404Z,96695.15
2022-09-15T18:56:33.068Z,96703.10
2022-09-15T18:59:04.788Z,96708.67
2022-09-15T19:01:37.008Z,96706.90
2022-09-15T19:05:26.023Z,96706.17
2022-09-15T19:08:19.552Z,96710.90
2022-09-15T19:10:58.835Z,96711.09
2022-09-15T19:13:31.573Z,96713.39
2022-09-15T19:16:07.375Z,96713.97
2022-09-15T19:18:39.899Z,96709.85
2022-09-15T19:21:15.409Z,96715.55
2022-09-15T19:23:47.671Z,96721.06
2022-09-15T19:26:19.970Z,96723.33
2022-09-15T19:28:54.590Z,96729.39
2022-09-15T19:31:27.680Z,96739.23
2022-09-15T19:33:59.691Z,96739.41
2022-09-15T19:36:32.291Z,96738.54
2022-09-15T19:39:04.332Z,96739.02
2022-09-15T19:41:36.430Z,96736.88
2022-09-15T19:44:10.668Z,96738.82
2022-09-15T19:46:43.366Z,96747.90
2022-09-15T19:49:16.443Z,96748.67
2022-09-15T19:51:52.980Z,96749.31
2022-09-15T19:54:26.210Z,96747.40
2022-09-15T19:56:58.528Z,96756.63
2022-09-15T19:59:31.883Z,96759.69
2022-09-15T20:02:03.790Z,96762.52
2022-09-15T20:04:40.874Z,96758.77
2022-09-15T20:07:12.966Z,96762.45
2022-09-15T20:09:45.263Z,96758.15
2022-09-15T20:12:17.602Z,96757.83
2022-09-15T20:14:49.419Z,96757.79
2022-09-15T20:17:21.660Z,96754.77
2022-09-15T20:19:53.758Z,96756.07
2022-09-15T20:22:25.885Z,96750.06
2022-09-15T20:24:57.768Z,96753.04
2022-09-15T20:27:30.427Z,96752.75
2022-09-15T20:30:02.742Z,96748.64
2022-09-15T20:32:34.597Z,96754.59
2022-09-15T20:35:08.873Z,96753.89
2022-09-15T20:37:40.891Z,96756.52
2022-09-15T20:40:14.606Z,96755.64
2022-09-15T20:42:47.634Z,96759.48
2022-09-15T20:45:19.433Z,96758.59
2022-09-15T20:47:51.138Z,96758.48
2022-09-15T20:50:22.858Z,96759.09
2022-09-15T20:52:54.589Z,96758.55
2022-09-15T20:55:26.466Z,96760.02
2022-09-15T20:57:58.186Z,96758.80
2022-09-15T21:00:33.751Z,96756.98
2022-09-15T21:03:05.913Z,96761.12
2022-09-15T21:05:37.605Z,96765.75
2022-09-15T21:08:10.857Z,96773.89
2022-09-15T21:10:46.884Z,96778.90
2022-09-15T21:13:19.133Z,96784.20
2022-09-15T21:15:57.903Z,96797.34
2022-09-15T21:18:32.598Z,96800.37
2022-09-15T21:21:07.308Z,96797.59
2022-09-15T21:23:41.333Z,96800.42
2022-09-15T21:26:15.021Z,96796.84
2022-09-15T21:28:47.238Z,96803.48
2022-09-15T21:31:21.205Z,96809.90
2022-09-15T21:33:54.840Z,96809.48
2022-09-15T21:36:29.541Z,96810.67
2022-09-15T21:39:02.862Z,96813.91
2022-09-15T21:41:34.697Z,96816.02
2022-09-15T21:44:06.822Z,96818.61
2022-09-15T21:46:38.597Z,96820.81
2022-09-15T21:49:10.738Z,96822.24
2022-09-15T21:51:43.019Z,96819.52
2022-09-15T21:54:17.965Z,96824.86
2022-09-15T21:56:53.887Z,96829.53
2022-09-15T21:59:25.823Z,96826.20
2022-09-15T22:01:57.743Z,96827.86
2022-09-15T22:04:29.502Z,96824.70
2022-09-15T22:07:04.375Z,96825.45
2022-09-15T22:09:36.103Z,96826.14
2022-09-15T22:12:10.461Z,96826.75
2022-09-15T22:14:42.143Z,96827.88
2022-09-15T22:17:18.626Z,96828.10
2022-09-15T22:19:51.146Z,96831.01
2022-09-15T22:22:23.549Z,96836.65
2022-09-15T22:24:55.447Z,96839.16
2022-09-15T22:27:27.204Z,96842.84
2022-09-15T22:29:59.058Z,96842.57
2022-09-15T22:32:31.346Z,96840.25
2022-09-15T22:35:03.149Z,96840.10
2022-09-15T22:37:36.162Z,96845.61
2022-09-15T22:40:09.638Z,96843.98
2022-09-15T22:42:41.464Z,96847.55
2022-09-15T22:45:13.672Z,96853.48
2022-09-15T22:47:45.385Z,96856.71
2022-09-15T22:50:17.692Z,96856.14
2022-09-15T22:52:50.856Z,96856.60
2022-09-15T22:55:22.929Z,96857.11
2022-09-15T22:57:54.688Z,96860.85
2022-09-15T23:00:27.176Z,96858.91
2022-09-15T23:02:58.859Z,96860.17
2022-09-15T23:05:30.336Z,96858.77
2022-09-15T23:08:00.302Z,96858.36
2022-09-15T23:10:33.269Z,96859.95
2022-09-15T23:13:04.734Z,96862.60
2022-09-15T23:15:36.640Z,96862.63
2022-09-15T23:18:08.155Z,96860.51
2022-09-15T23:20:40.353Z,96864.91
2022-09-15T23:23:11.839Z,96868.27
2022-09-15T23:25:41.805Z,96862.74
2022-09-15T23:28:13.235Z,96871.27
2022-09-15T23:30:43.221Z,96870.02
2022-09-15T23:33:14.661Z,96873.08
2022-09-15T23:35:44.668Z,96869.17
2022-09-15T23:38:16.660Z,96869.61
2022-09-15T23:40:49.678Z,96867.79
2022-09-15T23:43:21.139Z,96875.36
2022-09-15T23:45:51.325Z,96880.36
2022-09-15T23:48:23.442Z,96883.67
2022-09-15T23:50:55.159Z,96884.55
2022-09-15T23:53:26.663Z,96888.62
2022-09-15T23:55:58.231Z,96890.64
2022-09-15T23:58:29.692Z,96890.94
